Time;durP1;ratioP1;P1;durP2;ratioP2;P2;SDS_P1;SDS_P2;PMS_P1;PMS_P2;Temp;Humidity;BMP_temperature;BMP_pressure;BME280_temperature;BME280_humidity;BME280_pressure;Samples;Min_cycle;Max_cycle;Signal;HPM_P1;HPM_P2
2022/07/18 00:00:10;;;;;;;0.20;0.20;;;;;;;22.49;35.33;101804.38;5210085;28;20050;-88
2022/07/18 00:02:40;;;;;;;0.20;0.20;;;;;;;22.48;35.05;101797.31;5187888;28;20033;-88
2022/07/18 00:05:11;;;;;;;0.38;0.38;;;;;;;22.44;35.29;101806.47;5162488;28;20043;-88
2022/07/18 00:07:44;;;;;;;0.73;0.73;;;;;;;22.40;35.52;101804.94;5183587;28;20046;-88
2022/07/18 00:10:14;;;;;;;0.40;0.40;;;;;;;22.38;35.47;101804.13;5191422;28;20044;-88
2022/07/18 00:12:45;;;;;;;0.63;0.63;;;;;;;22.34;35.38;101806.13;5199901;28;20064;-89
2022/07/18 00:15:19;;;;;;;0.52;0.35;;;;;;;22.29;35.33;101803.72;5192154;28;20292;-88
2022/07/18 00:17:49;;;;;;;8.77;1.38;;;;;;;22.27;35.35;101810.97;5186695;28;20033;-88
2022/07/18 00:20:20;;;;;;;0.40;0.40;;;;;;;22.24;35.50;101813.84;5222248;28;20055;-88
2022/07/18 00:22:50;;;;;;;0.25;0.25;;;;;;;22.22;35.60;101806.88;5228449;28;20049;-88
2022/07/18 00:25:22;;;;;;;0.43;0.40;;;;;;;22.19;35.42;101802.53;5194324;28;20057;-88
2022/07/18 00:27:52;;;;;;;0.77;0.77;;;;;;;22.17;35.29;101801.81;5224480;28;20029;-87
2022/07/18 00:30:22;;;;;;;0.40;0.40;;;;;;;22.13;35.57;101808.25;5188801;28;20038;-89
2022/07/18 00:32:53;;;;;;;1.73;0.82;;;;;;;22.11;35.48;101807.47;5205739;28;20469;-89
2022/07/18 00:35:24;;;;;;;0.70;0.70;;;;;;;22.08;35.71;101813.88;5185328;28;20513;-89
2022/07/18 00:37:55;;;;;;;0.45;0.45;;;;;;;22.06;35.72;101804.22;5220157;28;20037;-88
2022/07/18 00:40:25;;;;;;;0.65;0.65;;;;;;;22.03;35.99;101813.28;5218505;28;20855;-88
2022/07/18 00:42:56;;;;;;;0.22;0.22;;;;;;;22.02;35.92;101811.56;5196986;28;20199;-87
2022/07/18 00:45:26;;;;;;;0.50;0.50;;;;;;;21.99;36.16;101806.38;5202697;28;20048;-88
2022/07/18 00:47:57;;;;;;;0.45;0.45;;;;;;;21.94;36.09;101803.97;5184505;28;20052;-88
2022/07/18 00:50:27;;;;;;;2.05;1.23;;;;;;;21.92;36.42;101803.25;5187381;28;20060;-89
2022/07/18 00:52:58;;;;;;;0.20;0.20;;;;;;;21.91;36.27;101803.31;5186761;28;20029;-88
2022/07/18 00:55:28;;;;;;;0.30;0.30;;;;;;;21.88;35.96;101796.34;5212959;28;20405;-88
2022/07/18 00:57:59;;;;;;;1.13;1.05;;;;;;;21.85;36.40;101789.38;5206919;28;20087;-88
2022/07/18 01:03:22;;;;;;;0.43;0.43;;;;;;;21.80;36.39;101786.09;5216792;28;20029;-88
2022/07/18 01:05:53;;;;;;;0.47;0.47;;;;;;;21.79;36.67;101788.84;5210587;28;20580;-88
2022/07/18 01:08:26;;;;;;;0.85;0.85;;;;;;;21.76;36.42;101791.72;5183518;28;20025;-88
2022/07/18 01:10:57;;;;;;;0.65;0.65;;;;;;;21.74;36.58;101781.09;5209018;28;20059;-88
2022/07/18 01:13:27;;;;;;;0.43;0.43;;;;;;;21.69;36.48;101784.03;5207708;28;20040;-88
2022/07/18 01:15:58;;;;;;;0.20;0.20;;;;;;;21.68;36.61;101789.47;5217971;28;20034;-89
2022/07/18 01:18:28;;;;;;;0.25;0.25;;;;;;;21.65;36.81;101782.50;5223967;28;20044;-88
2022/07/18 01:20:59;;;;;;;0.45;0.45;;;;;;;21.64;36.78;101786.13;5187042;28;20204;-88
2022/07/18 01:23:32;;;;;;;0.70;0.70;;;;;;;21.61;36.96;101778.28;5216327;28;20278;-88
2022/07/18 01:26:03;;;;;;;0.40;0.40;;;;;;;21.59;36.77;101772.19;5194527;28;20044;-87
2022/07/18 01:28:36;;;;;;;0.40;0.40;;;;;;;21.56;36.86;101774.97;5196777;28;20110;-88
2022/07/18 01:31:07;;;;;;;0.82;0.63;;;;;;;21.53;36.87;101772.47;5188644;28;20716;-88
2022/07/18 01:33:38;;;;;;;0.50;0.50;;;;;;;21.51;37.00;101777.06;5216895;28;20033;-88
2022/07/18 01:36:08;;;;;;;1.48;0.45;;;;;;;21.47;37.16;101775.50;5184177;28;20075;-87
2022/07/18 01:38:39;;;;;;;0.30;0.30;;;;;;;21.44;36.96;101783.69;5182828;28;20061;-88
2022/07/18 01:41:12;;;;;;;0.45;0.45;;;;;;;21.41;36.97;101789.19;5184188;28;20052;-88
2022/07/18 01:43:43;;;;;;;0.43;0.43;;;;;;;21.36;36.93;101779.63;5221120;28;20044;-88
2022/07/18 01:46:14;;;;;;;0.40;0.40;;;;;;;21.36;36.99;101784.13;5205559;28;20041;-88
2022/07/18 01:48:45;;;;;;;0.47;0.47;;;;;;;21.32;37.28;101779.91;5188622;28;20032;-88
2022/07/18 01:51:16;;;;;;;0.20;0.20;;;;;;;21.29;37.34;101778.25;5182812;28;20041;-88
2022/07/18 01:53:58;;;;;;;0.22;0.22;;;;;;;21.27;37.52;101771.28;5213839;28;20108;-88
2022/07/18 01:56:28;;;;;;;0.30;0.30;;;;;;;21.22;37.57;101777.75;5199158;28;20025;-88
2022/07/18 01:59:01;;;;;;;0.43;0.43;;;;;;;21.18;37.75;101772.66;5165085;28;20021;-88
2022/07/18 02:01:32;;;;;;;0.30;0.30;;;;;;;21.17;38.11;101781.63;5193368;28;20037;-88
2022/07/18 02:04:03;;;;;;;0.30;0.30;;;;;;;21.15;37.38;101778.16;5186942;28;20034;-86
2022/07/18 02:06:33;;;;;;;1.35;1.25;;;;;;;21.11;37.81;101776.63;5194630;28;20117;-88
2022/07/18 02:09:06;;;;;;;5.15;0.95;;;;;;;21.10;37.51;101777.56;5217710;28;20048;-88
2022/07/18 02:11:37;;;;;;;0.65;0.65;;;;;;;21.05;38.15;101780.47;5189266;28;20035;-88
2022/07/18 02:14:08;;;;;;;0.93;0.80;;;;;;;21.04;37.95;101782.28;5205452;28;20033;-88
2022/07/18 02:16:38;;;;;;;0.63;0.63;;;;;;;21.00;37.87;101779.84;5185844;28;20207;-88
2022/07/18 02:19:09;;;;;;;0.50;0.50;;;;;;;20.97;37.95;101783.56;5165141;28;20068;-88
2022/07/18 02:21:43;;;;;;;8.30;1.80;;;;;;;20.94;38.15;101778.41;5178819;28;20033;-87
2022/07/18 02:24:13;;;;;;;0.55;0.55;;;;;;;20.91;37.96;101771.41;5204405;28;20029;-88
2022/07/18 02:26:44;;;;;;;0.55;0.55;;;;;;;20.87;38.43;101768.97;5216144;28;20056;-88
2022/07/18 02:29:17;;;;;;;0.30;0.30;;;;;;;20.84;38.11;101763.84;5220776;28;20594;-88
2022/07/18 02:31:47;;;;;;;0.47;0.47;;;;;;;20.81;38.09;101761.31;5213777;28;20021;-88
2022/07/18 02:34:18;;;;;;;8.68;1.95;;;;;;;20.78;38.32;101759.69;5205205;28;20041;-88
2022/07/18 02:36:50;;;;;;;0.57;0.50;;;;;;;20.77;38.38;101757.13;5194401;28;20095;-88
2022/07/18 02:39:20;;;;;;;2.08;0.77;;;;;;;20.74;38.08;101758.16;5159764;28;20112;-89
2022/07/18 02:41:52;;;;;;;0.20;0.20;;;;;;;20.70;38.48;101752.06;5179845;28;20030;-88
2022/07/18 02:44:23;;;;;;;0.25;0.25;;;;;;;20.69;38.41;101762.81;5175788;28;20537;-88
2022/07/18 02:46:56;;;;;;;0.40;0.40;;;;;;;20.67;38.89;101767.34;5207107;28;20037;-88
2022/07/18 02:49:27;;;;;;;0.60;0.60;;;;;;;20.63;38.78;101763.16;5203105;28;20101;-88
2022/07/18 02:52:04;;;;;;;0.50;0.50;;;;;;;20.58;38.83;101763.38;5213362;28;20109;-88
2022/07/18 02:54:36;;;;;;;0.30;0.30;;;;;;;20.55;38.73;101758.22;5189158;28;20033;-89
2022/07/18 02:57:10;;;;;;;0.98;0.47;;;;;;;20.50;38.95;101766.44;5183328;28;20026;-88
2022/07/18 02:59:40;;;;;;;0.20;0.20;;;;;;;20.49;38.93;101771.88;5194545;28;20041;-88
2022/07/18 03:02:11;;;;;;;0.40;0.40;;;;;;;20.47;38.76;101773.75;5178545;28;20724;-88
2022/07/18 03:04:41;;;;;;;1.00;0.57;;;;;;;20.44;38.80;101770.31;5211754;28;20041;-87
2022/07/18 03:07:12;;;;;;;0.22;0.22;;;;;;;20.41;39.30;101769.63;5182983;28;20098;-87
2022/07/18 03:09:42;;;;;;;0.85;0.85;;;;;;;20.36;39.25;101767.19;5176000;28;20427;-87
2022/07/18 03:12:16;;;;;;;0.65;0.60;;;;;;;20.33;39.09;101764.69;5195955;28;20064;-87
2022/07/18 03:14:47;;;;;;;0.28;0.28;;;;;;;20.29;39.45;101763.09;5169680;28;20042;-89
2022/07/18 03:17:17;;;;;;;0.40;0.40;;;;;;;20.28;39.36;101766.72;5201460;28;20061;-87
2022/07/18 03:19:48;;;;;;;0.30;0.30;;;;;;;20.23;39.27;101758.97;5172110;28;20064;-87
2022/07/18 03:22:18;;;;;;;3.90;1.20;;;;;;;20.20;39.38;101753.78;5187286;28;20033;-88
2022/07/18 03:24:48;;;;;;;0.20;0.20;;;;;;;20.18;39.56;101754.81;5195507;28;20060;-88
2022/07/18 03:27:19;;;;;;;0.30;0.30;;;;;;;20.16;39.51;101751.34;5213407;28;20033;-88
2022/07/18 03:29:49;;;;;;;0.47;0.47;;;;;;;20.12;39.55;101748.84;5177269;28;20033;-87
2022/07/18 03:32:20;;;;;;;0.65;0.65;;;;;;;20.11;39.87;101754.25;5193313;28;20025;-87
2022/07/18 03:34:50;;;;;;;0.40;0.40;;;;;;;20.07;39.75;101747.38;5198278;28;20037;-89
2022/07/18 03:37:30;;;;;;;0.60;0.60;;;;;;;20.05;39.74;101735.94;5187010;28;20025;-88
2022/07/18 03:40:01;;;;;;;0.43;0.43;;;;;;;20.03;39.79;101733.34;5189601;28;20122;-87
2022/07/18 03:42:31;;;;;;;0.63;0.63;;;;;;;20.02;39.72;101733.41;5204201;28;20467;-88
2022/07/18 03:45:02;;;;;;;4.30;0.82;;;;;;;19.97;40.06;101731.84;5197815;28;20033;-87
2022/07/18 03:47:36;;;;;;;0.35;0.35;;;;;;;19.95;39.80;101743.53;5180093;28;20028;-88
2022/07/18 03:50:09;;;;;;;0.30;0.30;;;;;;;19.93;40.01;101746.25;5225268;28;20037;-87
2022/07/18 03:52:40;;;;;;;0.50;0.50;;;;;;;19.89;40.15;101739.38;5180393;28;20048;-89
2022/07/18 03:55:10;;;;;;;0.45;0.45;;;;;;;19.87;39.92;101748.38;5228738;28;20049;-88
2022/07/18 03:57:41;;;;;;;5.50;1.38;;;;;;;19.83;40.07;101750.31;5189026;28;20056;-88
2022/07/18 04:00:12;;;;;;;0.63;0.30;;;;;;;19.81;40.11;101745.03;5191400;28;20063;-88
2022/07/18 04:02:48;;;;;;;0.30;0.30;;;;;;;19.79;40.21;101746.91;5209017;28;20033;-88
2022/07/18 04:05:18;;;;;;;5.38;2.28;;;;;;;19.76;40.10;101740.88;5219458;28;20046;-87
2022/07/18 04:07:49;;;;;;;1.80;0.95;;;;;;;19.74;40.35;101746.28;5198908;28;20036;-88
2022/07/18 04:10:19;;;;;;;0.65;0.50;;;;;;;19.72;40.87;101744.63;5197734;28;20067;-89
2022/07/18 04:12:54;;;;;;;0.40;0.40;;;;;;;19.70;40.40;101739.41;5202430;28;20044;-88
2022/07/18 04:15:25;;;;;;;7.63;1.03;;;;;;;19.68;40.33;101746.59;5228914;28;20033;-88
2022/07/18 04:17:56;;;;;;;4.47;0.57;;;;;;;19.67;40.63;101743.06;5185114;28;20297;-89
2022/07/18 04:20:27;;;;;;;0.30;0.30;;;;;;;19.67;40.93;101750.19;5197210;28;20041;-90
2022/07/18 04:23:00;;;;;;;0.45;0.45;;;;;;;19.64;40.78;101740.56;5212856;28;20025;-90
2022/07/18 04:25:37;;;;;;;0.43;0.30;;;;;;;19.61;40.80;101746.03;5214012;28;20694;-89
2022/07/18 04:28:10;;;;;;;0.60;0.60;;;;;;;19.60;40.73;101744.28;5205247;28;20063;-88
2022/07/18 04:30:42;;;;;;;0.68;0.68;;;;;;;19.58;40.78;101742.66;5203413;28;20041;-90
2022/07/18 04:33:13;;;;;;;0.87;0.63;;;;;;;19.57;40.91;101738.25;5203750;28;20039;-90
2022/07/18 04:35:43;;;;;;;1.48;1.15;;;;;;;19.56;40.94;101737.41;5204618;28;20050;-90
2022/07/18 04:38:14;;;;;;;0.57;0.57;;;;;;;19.56;41.34;101725.88;5214063;28;20029;-91
2022/07/18 04:40:45;;;;;;;1.90;1.38;;;;;;;19.55;41.04;101725.03;5220235;28;20051;-88
2022/07/18 04:43:15;;;;;;;0.40;0.40;;;;;;;19.56;41.13;101725.88;5233946;28;20025;-89
2022/07/18 04:45:48;;;;;;;;;;;;;;;19.54;41.22;101731.28;5202107;28;20072;-89
2022/07/18 04:48:19;;;;;;;0.43;0.43;;;;;;;19.56;41.15;101731.19;5221165;28;19960;-88
2022/07/18 04:50:49;;;;;;;0.40;0.40;;;;;;;19.55;41.33;101729.47;5214688;28;20033;-89
2022/07/18 04:53:20;;;;;;;0.20;0.20;;;;;;;19.54;41.81;101727.78;5191153;28;20111;-89
2022/07/18 04:55:50;;;;;;;0.25;0.25;;;;;;;19.54;41.68;101722.47;5164973;28;20543;-88
2022/07/18 04:58:21;;;;;;;0.57;0.38;;;;;;;19.53;41.76;101721.56;5181883;28;20379;-89
2022/07/18 05:00:52;;;;;;;3.17;1.13;;;;;;;19.53;41.69;101726.06;5204133;28;20072;-89
2022/07/18 05:03:23;;;;;;;0.30;0.30;;;;;;;19.55;41.83;101724.16;5182111;28;20038;-89
2022/07/18 05:05:54;;;;;;;0.30;0.30;;;;;;;19.56;42.05;101715.22;5184977;28;20033;-89
2022/07/18 05:08:24;;;;;;;9.38;1.83;;;;;;;19.55;41.97;101722.38;5208277;28;20061;-89
2022/07/18 05:10:55;;;;;;;1.00;1.00;;;;;;;19.58;42.02;101721.34;5205159;28;20393;-88
2022/07/18 05:13:26;;;;;;;0.50;0.50;;;;;;;19.60;41.98;101724.81;5183109;28;20033;-88
2022/07/18 05:15:59;;;;;;;0.63;0.63;;;;;;;19.61;42.39;101718.56;5201671;28;20105;-88
2022/07/18 05:18:29;;;;;;;0.93;0.50;;;;;;;19.62;42.37;101720.28;5205683;28;20052;-89
2022/07/18 05:21:02;;;;;;;0.43;0.43;;;;;;;19.63;42.52;101717.53;5216579;28;20056;-88
2022/07/18 05:23:33;;;;;;;0.85;0.50;;;;;;;19.65;42.38;101725.44;5207408;28;20055;-88
2022/07/18 05:26:04;;;;;;;1.48;1.38;;;;;;;19.67;42.55;101728.88;5217817;28;20561;-87
2022/07/18 05:28:35;;;;;;;0.65;0.65;;;;;;;19.68;42.60;101719.97;5201553;28;20032;-88
2022/07/18 05:31:06;;;;;;;0.95;0.95;;;;;;;19.70;42.78;101728.75;5185573;28;20109;-89
2022/07/18 05:33:36;;;;;;;1.88;1.42;;;;;;;19.74;42.88;101724.13;5205119;28;20158;-89
2022/07/18 05:36:09;;;;;;;4.43;1.10;;;;;;;19.72;42.94;101726.84;5187241;28;20040;-88
2022/07/18 05:38:40;;;;;;;1.55;1.08;;;;;;;19.76;42.87;101722.22;5198490;28;20036;-88
2022/07/18 05:41:10;;;;;;;0.30;0.30;;;;;;;19.79;42.88;101722.09;5189290;28;20064;-88
2022/07/18 05:43:41;;;;;;;1.88;1.35;;;;;;;19.80;42.98;101722.00;5216361;28;20057;-88
2022/07/18 05:46:11;;;;;;;0.20;0.20;;;;;;;19.81;42.83;101721.06;5194341;28;20099;-88
2022/07/18 05:48:45;;;;;;;0.50;0.50;;;;;;;19.86;43.09;101720.03;5175210;28;20073;-89
2022/07/18 05:51:16;;;;;;;0.47;0.47;;;;;;;19.80;43.38;101711.34;5211110;28;20037;-89
2022/07/18 05:53:47;;;;;;;0.30;0.30;;;;;;;19.83;43.08;101718.34;5220277;28;20032;-88
2022/07/18 05:56:17;;;;;;;0.30;0.30;;;;;;;19.88;43.00;101715.47;5202567;28;20103;-88
2022/07/18 05:58:51;;;;;;;2.95;0.38;;;;;;;19.90;43.01;101713.59;5180892;28;20033;-90
2022/07/18 06:01:21;;;;;;;0.20;0.20;;;;;;;19.94;42.85;101716.03;5214766;28;20048;-88
2022/07/18 06:03:52;;;;;;;0.38;0.38;;;;;;;19.99;43.06;101717.59;5182088;28;20038;-89
2022/07/18 06:06:30;;;;;;;5.28;1.65;;;;;;;19.99;43.19;101718.44;5195161;28;20049;-89
2022/07/18 06:09:00;;;;;;;0.22;0.22;;;;;;;20.02;43.13;101712.97;5216096;28;20025;-90
2022/07/18 06:11:31;;;;;;;0.40;0.40;;;;;;;20.07;43.38;101710.94;5224627;28;20253;-88
2022/07/18 06:14:07;;;;;;;0.45;0.40;;;;;;;20.09;42.73;101700.19;5180721;28;20051;-89
2022/07/18 06:16:38;;;;;;;0.40;0.40;;;;;;;20.11;43.02;101712.50;5218863;28;20040;-88
2022/07/18 06:19:08;;;;;;;0.32;0.32;;;;;;;20.16;42.96;101709.59;5199962;28;20064;-90
2022/07/18 06:21:39;;;;;;;0.57;0.57;;;;;;;20.17;43.85;101707.78;5186147;28;20037;-89
2022/07/18 06:24:12;;;;;;;0.20;0.20;;;;;;;20.22;43.06;101706.63;5201908;28;20044;-89
2022/07/18 06:26:43;;;;;;;1.00;0.95;;;;;;;20.26;43.23;101702.84;5203355;28;20029;-89
2022/07/18 06:29:13;;;;;;;0.77;0.77;;;;;;;20.29;43.29;101704.47;5200564;28;20127;-88
2022/07/18 06:31:44;;;;;;;0.47;0.47;;;;;;;20.35;42.88;101706.84;5215992;28;20458;-89
2022/07/18 06:34:14;;;;;;;0.50;0.50;;;;;;;20.38;43.02;101697.81;5215937;28;20045;-87
2022/07/18 06:36:45;;;;;;;0.30;0.30;;;;;;;20.43;42.65;101701.97;5194992;28;20025;-89
2022/07/18 06:39:18;;;;;;;0.40;0.40;;;;;;;20.47;42.78;101697.31;5206556;28;20090;-88
2022/07/18 06:41:48;;;;;;;0.38;0.38;;;;;;;20.48;42.67;101703.50;5185276;28;20039;-88
2022/07/18 06:44:19;;;;;;;0.30;0.30;;;;;;;20.50;42.93;101696.28;5151361;22;20047;-78
2022/07/18 06:46:51;;;;;;;0.60;0.60;;;;;;;20.55;43.16;101699.56;5142315;28;20042;-78
2022/07/18 06:49:23;;;;;;;0.30;0.30;;;;;;;20.64;43.48;101698.22;5139592;28;20049;-78
2022/07/18 06:51:53;;;;;;;0.38;0.38;;;;;;;20.67;43.16;101706.03;5141083;28;20042;-78
2022/07/18 06:54:27;;;;;;;0.20;0.20;;;;;;;20.73;43.25;101703.94;5139320;28;20486;-78
2022/07/18 06:56:59;;;;;;;0.28;0.28;;;;;;;20.79;43.16;101708.06;5175949;23;20109;-80
2022/07/18 06:59:29;;;;;;;0.40;0.40;;;;;;;20.79;42.99;101712.53;5152742;28;20046;-81
2022/07/18 07:02:00;;;;;;;0.30;0.30;;;;;;;20.84;42.97;101706.00;5169975;28;20030;-80
2022/07/18 07:04:30;;;;;;;1.10;0.47;;;;;;;20.86;42.85;101705.94;5170090;28;20179;-80
2022/07/18 07:07:01;;;;;;;10.02;1.30;;;;;;;20.88;43.51;101701.38;5152962;28;20018;-81
2022/07/18 07:09:31;;;;;;;0.25;0.25;;;;;;;20.96;43.26;101696.47;5142739;28;20039;-81
2022/07/18 07:12:05;;;;;;;7.13;0.77;;;;;;;21.04;44.76;101704.06;5152628;28;20046;-79
2022/07/18 07:14:36;;;;;;;0.63;0.60;;;;;;;21.01;44.70;101697.09;5130734;28;20043;-80
2022/07/18 07:17:06;;;;;;;0.30;0.30;;;;;;;21.11;43.77;101696.56;5123669;28;20046;-77
2022/07/18 07:19:37;;;;;;;0.55;0.55;;;;;;;21.07;44.20;101701.22;5136794;28;20043;-81
2022/07/18 07:22:07;;;;;;;0.47;0.47;;;;;;;21.11;44.20;101701.91;5152953;28;20037;-81
2022/07/18 07:24:40;;;;;;;0.32;0.32;;;;;;;21.22;44.00;101696.81;5116491;28;20107;-81
2022/07/18 07:27:10;;;;;;;0.23;0.23;;;;;;;21.23;44.23;101698.53;5132179;28;20039;-79
2022/07/18 07:29:43;;;;;;;1.25;0.50;;;;;;;21.36;44.42;101696.88;5139406;28;20287;-78
2022/07/18 07:32:14;;;;;;;0.20;0.20;;;;;;;21.39;44.34;101693.19;5136838;28;20511;-81
2022/07/18 07:34:44;;;;;;;0.40;0.40;;;;;;;21.52;44.46;101685.34;5129816;28;20116;-80
2022/07/18 07:37:15;;;;;;;0.30;0.30;;;;;;;21.56;44.02;101683.34;5155570;28;20030;-80
2022/07/18 07:39:46;;;;;;;0.50;0.50;;;;;;;21.56;44.14;101675.34;5154512;28;20096;-81
2022/07/18 07:42:16;;;;;;;0.32;0.30;;;;;;;21.64;43.74;101683.78;5172975;28;20250;-80
2022/07/18 07:44:47;;;;;;;0.88;0.73;;;;;;;21.70;43.77;101673.59;5161605;28;20339;-79
2022/07/18 07:47:17;;;;;;;0.50;0.50;;;;;;;21.67;43.91;101676.47;5144032;28;20022;-81
2022/07/18 07:49:48;;;;;;;2.28;1.33;;;;;;;21.75;43.88;101669.78;5132385;28;20489;-81
2022/07/18 07:52:23;;;;;;;0.25;0.25;;;;;;;21.79;43.65;101671.31;5153236;28;20026;-78
2022/07/18 07:54:53;;;;;;;0.70;0.70;;;;;;;21.86;43.55;101672.66;5130887;28;20038;-78
2022/07/18 07:57:24;;;;;;;0.20;0.20;;;;;;;21.89;43.15;101672.50;5141894;28;20072;-80
2022/07/18 07:59:54;;;;;;;0.47;0.47;;;;;;;21.87;43.14;101666.38;5139428;28;20054;-79
2022/07/18 08:02:25;;;;;;;0.57;0.57;;;;;;;21.92;43.28;101660.75;5163615;28;20042;-81
2022/07/18 08:04:55;;;;;;;0.40;0.40;;;;;;;21.97;43.12;101664.88;5150026;28;20508;-81
2022/07/18 08:07:26;;;;;;;0.80;0.75;;;;;;;22.07;43.31;101667.00;5163987;28;20037;-81
2022/07/18 08:09:56;;;;;;;0.35;0.35;;;;;;;22.08;43.21;101664.22;5177716;28;20049;-81
2022/07/18 08:12:27;;;;;;;0.43;0.43;;;;;;;22.19;42.96;101662.72;5162398;28;20026;-80
2022/07/18 08:14:57;;;;;;;0.20;0.20;;;;;;;22.26;42.71;101662.25;5143599;28;20050;-79
2022/07/18 08:17:31;;;;;;;0.20;0.20;;;;;;;22.28;42.50;101663.00;5159860;28;20030;-81
2022/07/18 08:20:01;;;;;;;2.00;1.13;;;;;;;22.35;42.97;101659.97;5155453;28;20052;-80
2022/07/18 08:22:32;;;;;;;0.20;0.20;;;;;;;22.32;43.09;101661.88;5139528;28;20030;-82
2022/07/18 08:25:03;;;;;;;0.45;0.45;;;;;;;22.40;42.85;101655.22;5165041;28;20101;-82
2022/07/18 08:27:33;;;;;;;0.20;0.20;;;;;;;22.42;43.04;101653.31;5161686;28;20029;-79
2022/07/18 08:30:07;;;;;;;0.30;0.30;;;;;;;22.46;42.71;101654.81;5139475;28;20046;-79
2022/07/18 08:32:37;;;;;;;12.73;2.35;;;;;;;22.50;42.84;101651.00;5176923;28;20042;-80
2022/07/18 08:35:08;;;;;;;0.65;0.63;;;;;;;22.53;42.66;101649.94;5153300;28;20034;-81
2022/07/18 08:37:38;;;;;;;0.65;0.65;;;;;;;22.60;41.94;101660.16;5134940;28;20031;-80
2022/07/18 08:40:10;;;;;;;0.82;0.50;;;;;;;22.72;42.00;101644.28;5136696;28;20329;-81
2022/07/18 08:42:41;;;;;;;0.55;0.55;;;;;;;22.78;41.42;101649.25;5159672;28;20060;-81
2022/07/18 08:45:11;;;;;;;0.30;0.30;;;;;;;22.78;41.70;101649.25;5152357;28;20049;-81
2022/07/18 08:47:44;;;;;;;0.20;0.20;;;;;;;22.85;41.77;101650.56;5161455;28;20511;-81
2022/07/18 08:50:15;;;;;;;2.17;0.60;;;;;;;22.89;42.03;101654.78;5148407;28;20068;-79
2022/07/18 08:52:45;;;;;;;0.30;0.30;;;;;;;22.97;41.62;101648.06;5154206;28;20405;-81
2022/07/18 08:55:16;;;;;;;0.93;0.40;;;;;;;23.08;40.88;101650.91;5120318;28;20042;-81
2022/07/18 08:57:47;;;;;;;0.65;0.65;;;;;;;23.06;40.29;101645.63;5170493;28;20081;-79
2022/07/18 09:00:21;;;;;;;0.10;0.10;;;;;;;23.09;40.66;101636.56;5133844;28;20459;-81
2022/07/18 09:03:02;;;;;;;0.20;0.20;;;;;;;23.15;41.08;101636.16;5166780;28;20516;-81
2022/07/18 09:05:37;;;;;;;3.03;1.65;;;;;;;23.22;40.87;101631.28;5150518;28;20126;-79
2022/07/18 09:08:15;;;;;;;1.55;0.80;;;;;;;23.31;40.95;101640.50;5141472;28;20121;-79
2022/07/18 09:10:55;;;;;;;3.50;1.20;;;;;;;23.34;40.35;101635.81;5165567;28;20538;-81
2022/07/18 09:13:38;;;;;;;0.60;0.60;;;;;;;23.40;40.17;101635.41;5154704;28;20301;-78
2022/07/18 09:16:12;;;;;;;;;;;;;;;23.42;40.22;101643.34;5154754;28;20041;-80
2022/07/18 09:18:46;;;;;;;0.20;0.20;;;;;;;23.45;39.88;101644.97;5156601;28;19913;-80
2022/07/18 09:21:21;;;;;;;0.20;0.20;;;;;;;23.49;39.25;101647.31;5156693;28;20069;-81
2022/07/18 09:23:54;;;;;;;0.47;0.35;;;;;;;23.60;39.25;101640.34;5153652;28;20037;-79
2022/07/18 09:26:46;;;;;;;2.97;0.55;;;;;;;23.72;39.47;101645.75;5137863;28;20335;-81
2022/07/18 09:29:17;;;;;;;0.40;0.40;;;;;;;23.75;39.15;101644.69;5158117;28;20053;-81
2022/07/18 09:31:54;;;;;;;0.22;0.22;;;;;;;23.78;36.52;101643.63;5132003;28;20306;-81
2022/07/18 09:34:35;;;;;;;0.50;0.38;;;;;;;23.82;34.15;101643.31;5148471;28;20042;-79
2022/07/18 09:37:13;;;;;;;0.40;0.40;;;;;;;23.88;34.78;101647.41;5152348;28;20053;-78
2022/07/18 09:39:43;;;;;;;0.40;0.40;;;;;;;23.87;35.00;101641.16;5166833;28;20089;-80
2022/07/18 09:42:18;;;;;;;0.63;0.60;;;;;;;23.97;34.62;101643.25;5140012;28;20053;-81
2022/07/18 09:44:59;;;;;;;0.73;0.73;;;;;;;23.99;33.98;101644.00;5166930;28;20104;-80
2022/07/18 09:47:29;;;;;;;1.88;0.73;;;;;;;24.06;33.99;101642.59;5169619;28;20471;-81
2022/07/18 09:50:00;;;;;;;1.42;0.70;;;;;;;24.14;34.03;101639.38;5149829;28;20046;-81
2022/07/18 09:52:31;;;;;;;1.45;0.90;;;;;;;24.34;34.32;101643.31;5157355;28;20038;-79
2022/07/18 09:55:05;;;;;;;0.25;0.25;;;;;;;24.36;34.21;101630.66;5149062;28;20038;-81
2022/07/18 09:57:37;;;;;;;0.85;0.50;;;;;;;24.51;33.92;101631.41;5150205;28;20408;-82
2022/07/18 10:00:08;;;;;;;1.60;0.57;;;;;;;24.48;33.94;101621.75;5151832;28;20555;-82
2022/07/18 10:02:38;;;;;;;0.30;0.30;;;;;;;24.58;33.59;101621.94;5126824;28;20066;-80
2022/07/18 10:05:09;;;;;;;0.95;0.25;;;;;;;24.67;34.05;101625.78;5144613;28;20037;-80
2022/07/18 10:07:40;;;;;;;0.38;0.38;;;;;;;24.71;32.49;101613.88;5149566;28;20026;-81
2022/07/18 10:10:10;;;;;;;0.30;0.30;;;;;;;24.82;33.46;101616.66;5134219;28;20049;-82
2022/07/18 10:12:42;;;;;;;0.22;0.22;;;;;;;24.90;32.68;101620.59;5153805;28;20061;-80
2022/07/18 10:15:12;;;;;;;0.50;0.50;;;;;;;24.99;32.11;101619.91;5161245;28;20042;-81
2022/07/18 10:17:43;;;;;;;0.30;0.30;;;;;;;25.03;32.91;101621.38;5171849;28;20437;-81
2022/07/18 10:20:14;;;;;;;0.30;0.30;;;;;;;25.11;31.28;101613.59;5157809;28;20092;-81
2022/07/18 10:22:46;;;;;;;0.20;0.20;;;;;;;25.26;32.15;101608.03;5173032;28;20031;-82
2022/07/18 10:25:16;;;;;;;0.38;0.38;;;;;;;25.36;32.23;101619.81;5139243;28;20058;-82
2022/07/18 10:28:08;;;;;;;2.20;1.05;;;;;;;25.38;30.99;101620.56;5165051;28;20077;-81
2022/07/18 10:30:45;;;;;;;0.32;0.30;;;;;;;25.42;31.73;101627.44;5150115;28;20042;-80
2022/07/18 10:33:39;;;;;;;0.40;0.40;;;;;;;25.53;31.69;101623.06;5159049;28;20030;-81
2022/07/18 10:36:14;;;;;;;0.68;0.25;;;;;;;25.64;31.59;101615.06;5146655;28;20041;-80
2022/07/18 10:39:19;;;;;;;0.22;0.22;;;;;;;25.75;31.64;101623.13;5148340;28;20096;-80
2022/07/18 10:42:01;;;;;;;0.30;0.30;;;;;;;25.88;31.40;101616.81;5131073;28;20051;-80
2022/07/18 10:44:34;;;;;;;0.38;0.38;;;;;;;25.91;31.51;101612.03;5133832;28;20071;-82
2022/07/18 10:47:23;;;;;;;0.22;0.22;;;;;;;26.04;31.77;101611.06;5166657;28;20029;-79
2022/07/18 10:49:56;;;;;;;18.25;1.27;;;;;;;26.19;31.46;101601.84;5131191;28;20038;-80
2022/07/18 10:52:30;;;;;;;0.20;0.20;;;;;;;26.28;31.79;101602.06;5136341;28;20135;-81
2022/07/18 10:57:54;;;;;;;0.57;0.57;;;;;;;26.44;29.76;101601.69;5154354;28;20046;-79
2022/07/18 11:00:36;;;;;;;0.40;0.40;;;;;;;26.51;30.53;101601.06;5148398;28;20042;-80
2022/07/18 11:03:09;;;;;;;0.28;0.25;;;;;;;26.66;29.50;101607.00;5143153;28;20050;-79
2022/07/18 11:05:45;;;;;;;0.28;0.28;;;;;;;26.67;29.28;101602.50;5136892;28;20129;-80
2022/07/18 11:08:18;;;;;;;0.38;0.38;;;;;;;26.73;29.34;101603.84;5143871;28;20042;-79
2022/07/18 11:10:57;;;;;;;0.50;0.50;;;;;;;26.77;29.16;101605.31;5117857;28;20702;-80
2022/07/18 11:13:36;;;;;;;0.40;0.40;;;;;;;26.84;28.60;101596.63;5149362;28;20468;-79
2022/07/18 11:16:24;;;;;;;10.63;1.60;;;;;;;26.84;28.32;101598.44;5114854;28;20038;-80
2022/07/18 11:18:54;;;;;;;0.20;0.20;;;;;;;26.94;29.47;101588.63;5118967;28;20350;-81
2022/07/18 11:21:32;;;;;;;0.20;0.20;;;;;;;27.14;29.73;101595.03;5133278;28;20049;-80
2022/07/18 11:24:08;;;;;;;0.40;0.40;;;;;;;27.23;29.30;101589.84;5130807;28;20485;-80
2022/07/18 11:26:44;;;;;;;0.90;0.65;;;;;;;27.22;28.95;101583.63;5124183;28;20031;-81
2022/07/18 11:29:17;;;;;;;0.20;0.20;;;;;;;27.31;28.96;101585.50;5116383;28;20046;-80
2022/07/18 11:31:48;;;;;;;1.55;0.90;;;;;;;27.45;28.99;101580.84;5137640;28;20030;-78
2022/07/18 11:34:20;;;;;;;1.53;0.83;;;;;;;27.46;29.32;101566.38;5127123;28;20050;-80
2022/07/18 11:36:51;;;;;;;0.83;0.83;;;;;;;27.56;29.95;101567.28;5119501;28;20053;-79
2022/07/18 11:39:30;;;;;;;0.70;0.70;;;;;;;27.71;29.38;101566.94;5154541;28;20046;-80
2022/07/18 11:42:01;;;;;;;0.20;0.20;;;;;;;27.84;29.07;101575.66;5130952;28;20037;-80
2022/07/18 11:44:32;;;;;;;0.40;0.40;;;;;;;27.90;28.50;101568.88;5120095;28;20100;-79
2022/07/18 11:47:06;;;;;;;0.32;0.32;;;;;;;27.93;29.19;101561.38;5151950;28;20108;-79
2022/07/18 11:49:37;;;;;;;0.25;0.25;;;;;;;28.05;28.64;101558.59;5155105;28;20378;-81
2022/07/18 11:52:08;;;;;;;0.40;0.40;;;;;;;28.20;28.12;101559.09;5152824;28;20381;-80
2022/07/18 11:54:38;;;;;;;0.63;0.60;;;;;;;28.24;28.60;101557.84;5151717;28;20243;-80